Time;durP1;ratioP1;P1;durP2;ratioP2;P2;SDS_P1;SDS_P2;PMS_P1;PMS_P2;Temp;Humidity;BMP_temperature;BMP_pressure;BME280_temperature;BME280_humidity;BME280_pressure;Samples;Min_cycle;Max_cycle;Signal;HPM_P1;HPM_P2
2022/10/29 00:01:45;;;;;;;10.32;6.50;;;;;;;10.26;84.77;99158.72;5051379;28;20534;-69
2022/10/29 00:04:11;;;;;;;11.50;5.93;;;;;;;10.26;84.82;99150.75;5033821;28;20498;-69
2022/10/29 00:06:37;;;;;;;9.95;5.95;;;;;;;10.25;84.59;99152.63;5001066;28;20041;-70
2022/10/29 00:09:03;;;;;;;10.60;6.05;;;;;;;10.19;84.85;99154.38;5017632;28;20048;-70
2022/10/29 00:11:29;;;;;;;8.52;5.60;;;;;;;10.25;84.84;99152.63;5033589;28;20417;-71
2022/10/29 00:13:58;;;;;;;8.55;5.68;;;;;;;10.28;85.10;99148.72;5000848;28;20044;-71
2022/10/29 00:16:26;;;;;;;8.77;5.57;;;;;;;10.28;84.21;99148.72;5033486;28;20044;-70
2022/10/29 00:18:53;;;;;;;10.02;5.80;;;;;;;10.31;84.46;99151.69;5033905;28;20037;-71
2022/10/29 00:21:21;;;;;;;10.23;5.88;;;;;;;10.27;84.33;99149.78;5017233;28;20414;-71
2022/10/29 00:23:47;;;;;;;10.95;5.57;;;;;;;10.23;84.17;99154.69;5033387;28;20044;-71
2022/10/29 00:26:13;;;;;;;9.02;5.35;;;;;;;10.20;84.18;99147.22;5017176;28;20544;-68
2022/10/29 00:28:39;;;;;;;9.25;5.50;;;;;;;10.22;84.07;99143.31;5045835;28;20079;-69
2022/10/29 00:31:06;;;;;;;8.43;5.10;;;;;;;10.24;84.41;99141.22;4986453;28;20092;-70
2022/10/29 00:33:32;;;;;;;7.10;5.00;;;;;;;10.23;84.09;99134.34;5021434;28;20041;-70
2022/10/29 00:36:03;;;;;;;7.63;4.65;;;;;;;10.20;84.00;99139.28;5037257;28;20057;-70
2022/10/29 00:38:30;;;;;;;7.90;4.88;;;;;;;10.17;84.06;99127.31;4989695;28;20442;-70
2022/10/29 00:40:56;;;;;;;7.28;4.72;;;;;;;10.13;84.59;99128.84;5041759;28;20094;-70
2022/10/29 00:43:24;;;;;;;6.80;4.30;;;;;;;10.15;85.18;99120.69;5013410;28;20037;-70
2022/10/29 00:46:06;;;;;;;6.88;4.35;;;;;;;10.16;84.26;99115.13;4997040;28;20041;-70
2022/10/29 00:48:35;;;;;;;6.13;4.30;;;;;;;10.05;83.83;99100.13;4997128;28;20041;-70
2022/10/29 00:51:02;;;;;;;8.88;4.43;;;;;;;10.14;84.26;99119.06;5013438;28;20045;-70
2022/10/29 00:53:30;;;;;;;6.43;4.25;;;;;;;10.13;84.36;99114.81;5013266;28;20047;-69
2022/10/29 00:55:57;;;;;;;5.80;4.00;;;;;;;10.13;83.80;99115.63;5046595;28;20118;-71
2022/10/29 00:58:23;;;;;;;7.65;4.10;;;;;;;9.86;84.18;99073.09;5032943;28;20064;-71
2022/10/29 01:00:48;;;;;;;7.60;4.57;;;;;;;10.02;84.05;99092.66;5051020;28;20355;-70
2022/10/29 01:03:15;;;;;;;6.35;4.30;;;;;;;10.05;84.26;99097.47;5033192;28;20049;-70
2022/10/29 01:05:43;;;;;;;4.88;3.80;;;;;;;10.02;84.04;99085.50;5051078;28;20041;-69
2022/10/29 01:08:09;;;;;;;5.20;3.72;;;;;;;10.03;83.40;99091.63;5054278;28;20044;-70
2022/10/29 01:10:56;;;;;;;5.65;3.65;;;;;;;10.02;83.12;99090.81;5055147;28;20051;-70
2022/10/29 01:13:31;;;;;;;5.85;3.80;;;;;;;10.04;83.53;99084.47;5054690;28;20053;-70
2022/10/29 01:16:03;;;;;;;5.80;3.45;;;;;;;10.08;82.74;99083.75;5054879;28;20071;-71
2022/10/29 01:18:55;;;;;;;5.45;3.70;;;;;;;10.12;82.23;99082.25;5054732;28;20136;-71
2022/10/29 01:21:41;;;;;;;4.85;3.10;;;;;;;10.10;82.77;99071.06;5027455;28;20144;-72
2022/10/29 01:24:25;;;;;;;4.97;3.60;;;;;;;10.06;82.78;99075.25;5036959;28;20041;-72
2022/10/29 01:27:15;;;;;;;4.65;3.28;;;;;;;10.08;83.15;99070.50;5020224;28;20047;-71
2022/10/29 01:30:03;;;;;;;6.55;3.55;;;;;;;10.02;83.06;99063.53;5020559;28;20094;-72
2022/10/29 01:32:44;;;;;;;6.30;3.88;;;;;;;10.02;82.70;99069.63;5036877;28;20045;-72
2022/10/29 01:35:17;;;;;;;6.00;3.55;;;;;;;9.97;82.73;99063.44;5054341;28;20037;-71
2022/10/29 01:38:08;;;;;;;5.90;3.97;;;;;;;9.97;82.68;99064.28;5054549;28;20048;-72
2022/10/29 01:40:37;;;;;;;6.00;3.95;;;;;;;9.96;83.66;99056.53;5046939;28;20041;-71
2022/10/29 01:43:26;;;;;;;7.72;4.28;;;;;;;9.84;83.38;99064.56;5054475;28;20055;-71
2022/10/29 01:45:56;;;;;;;4.57;3.65;;;;;;;9.84;83.95;99061.13;5035941;28;20071;-71
2022/10/29 01:48:26;;;;;;;6.88;3.80;;;;;;;9.84;83.13;99058.47;5036451;28;20638;-72
2022/10/29 01:50:55;;;;;;;6.05;3.97;;;;;;;9.90;83.62;99065.47;5019696;28;20094;-70
2022/10/29 01:53:20;;;;;;;5.18;3.53;;;;;;;9.86;83.91;99051.09;5036262;28;20049;-71
2022/10/29 01:55:46;;;;;;;6.07;3.67;;;;;;;9.90;84.25;99071.56;5032495;28;20419;-72
2022/10/29 01:58:12;;;;;;;6.28;4.00;;;;;;;9.91;84.06;99061.75;5000055;28;20056;-71
2022/10/29 02:01:20;;;;;;;6.57;3.85;;;;;;;9.85;84.44;99057.44;5032626;28;20068;-71
2022/10/29 02:04:14;;;;;;;6.78;3.70;;;;;;;9.84;84.19;99066.41;5025687;28;20049;-70
2022/10/29 02:06:58;;;;;;;7.85;3.78;;;;;;;9.82;84.62;99065.84;5034155;28;20056;-72
2022/10/29 02:09:48;;;;;;;6.32;3.95;;;;;;;9.78;84.04;99050.44;5002911;28;20049;-72
2022/10/29 02:12:22;;;;;;;6.88;3.60;;;;;;;9.83;85.04;99054.25;5054057;28;20047;-71
2022/10/29 02:15:16;;;;;;;6.72;4.18;;;;;;;9.80;84.43;99058.16;5038819;28;20055;-70
2022/10/29 02:17:42;;;;;;;7.57;4.10;;;;;;;9.74;85.09;99054.63;5035751;28;20514;-71
2022/10/29 02:20:10;;;;;;;7.50;3.58;;;;;;;9.83;84.71;99059.53;5035209;28;20064;-70
2022/10/29 02:22:36;;;;;;;4.93;3.90;;;;;;;9.88;84.79;99049.81;5053454;28;20115;-70
2022/10/29 02:25:03;;;;;;;7.75;4.22;;;;;;;9.87;84.96;99048.22;5035712;28;20040;-72
2022/10/29 02:27:29;;;;;;;5.85;3.55;;;;;;;9.93;84.30;99049.09;5035649;28;20099;-72
2022/10/29 02:29:54;;;;;;;6.70;4.45;;;;;;;9.96;84.20;99045.97;5035706;28;20037;-71
2022/10/29 02:32:20;;;;;;;6.18;4.30;;;;;;;9.98;84.30;99039.38;5053830;28;20036;-72
2022/10/29 02:34:45;;;;;;;6.38;3.65;;;;;;;9.99;84.36;99037.53;5053306;28;20045;-72
2022/10/29 02:37:11;;;;;;;5.93;4.15;;;;;;;9.98;84.18;99035.94;5053481;28;20037;-71
2022/10/29 02:39:37;;;;;;;5.47;4.05;;;;;;;9.93;84.62;99034.00;5035478;28;20045;-72
2022/10/29 02:42:02;;;;;;;5.63;3.42;;;;;;;9.96;84.12;99033.50;5053349;28;20045;-71
2022/10/29 02:44:28;;;;;;;6.43;4.25;;;;;;;9.90;83.48;99031.84;5053023;28;20077;-72
2022/10/29 02:46:53;;;;;;;7.00;4.45;;;;;;;9.93;83.98;99028.72;5018670;28;20043;-71
2022/10/29 02:49:19;;;;;;;6.32;4.20;;;;;;;9.95;83.93;99031.13;5035021;28;20395;-72
2022/10/29 02:51:45;;;;;;;7.28;4.53;;;;;;;9.91;84.20;99022.03;5035046;28;20040;-72
2022/10/29 02:54:11;;;;;;;6.50;4.45;;;;;;;9.97;83.86;99021.91;5052802;28;20060;-71
2022/10/29 02:56:36;;;;;;;7.45;4.18;;;;;;;9.97;83.13;99015.78;5018625;28;20055;-70
2022/10/29 02:59:02;;;;;;;9.10;4.50;;;;;;;9.92;84.51;99013.88;5018113;28;20037;-71
2022/10/29 03:01:28;;;;;;;5.40;4.10;;;;;;;10.01;84.07;99014.28;5035211;28;20251;-72
2022/10/29 03:03:53;;;;;;;7.40;4.15;;;;;;;9.93;83.29;99004.09;5052859;28;20080;-73
2022/10/29 03:06:20;;;;;;;7.20;4.00;;;;;;;10.00;83.86;99012.69;5035182;28;20040;-72
2022/10/29 03:08:46;;;;;;;7.05;4.13;;;;;;;10.04;83.88;99010.34;5035186;28;20048;-72
2022/10/29 03:11:12;;;;;;;7.57;3.95;;;;;;;10.03;83.50;99004.25;5034942;28;20048;-72
2022/10/29 03:13:38;;;;;;;5.63;4.13;;;;;;;10.02;83.47;99000.78;5034903;28;20259;-72
2022/10/29 03:16:04;;;;;;;6.38;4.05;;;;;;;10.02;83.50;98995.47;5018229;28;20044;-72
2022/10/29 03:18:29;;;;;;;8.00;4.10;;;;;;;9.99;83.67;98990.66;5034954;28;20553;-72
2022/10/29 03:20:55;;;;;;;4.85;4.00;;;;;;;9.97;83.16;98986.66;5052530;28;20033;-73
2022/10/29 03:23:21;;;;;;;7.65;4.32;;;;;;;9.99;83.75;98988.03;5034580;28;20041;-71
2022/10/29 03:25:54;;;;;;;7.65;4.10;;;;;;;9.98;83.69;98967.09;5034645;28;20041;-72
2022/10/29 03:28:24;;;;;;;6.25;4.13;;;;;;;9.89;83.08;98963.25;5052599;28;20103;-72
2022/10/29 03:30:49;;;;;;;6.00;4.07;;;;;;;9.94;83.64;98965.97;5017240;28;20034;-71
2022/10/29 03:33:15;;;;;;;5.47;4.47;;;;;;;10.00;83.67;98957.06;5034519;28;20093;-72
2022/10/29 03:35:41;;;;;;;5.80;4.05;;;;;;;10.06;82.65;98958.75;5034221;28;20048;-73
2022/10/29 03:38:07;;;;;;;6.97;4.25;;;;;;;9.92;83.64;98952.19;5017629;28;20048;-72
2022/10/29 03:40:32;;;;;;;6.85;4.65;;;;;;;9.89;83.45;98952.66;5034171;28;20040;-71
2022/10/29 03:42:58;;;;;;;6.53;5.20;;;;;;;9.86;83.70;98953.97;5001216;28;20552;-71
2022/10/29 03:45:24;;;;;;;6.05;4.00;;;;;;;9.85;83.64;98951.53;5052078;28;20040;-70
2022/10/29 03:47:49;;;;;;;6.15;4.68;;;;;;;9.82;83.98;98952.03;5034036;28;20053;-73
2022/10/29 03:50:15;;;;;;;5.85;4.13;;;;;;;9.78;83.49;98941.13;5017607;28;20060;-72
2022/10/29 03:52:41;;;;;;;7.43;4.18;;;;;;;9.70;84.38;98934.38;5034009;28;20048;-71
2022/10/29 03:55:07;;;;;;;5.60;4.07;;;;;;;9.67;84.51;98934.06;5017327;28;20502;-72
2022/10/29 03:57:33;;;;;;;6.13;4.35;;;;;;;9.69;84.51;98940.72;5033924;28;20048;-71
2022/10/29 03:59:59;;;;;;;9.00;4.57;;;;;;;9.73;84.84;98938.41;5050438;28;20055;-72
2022/10/29 04:02:25;;;;;;;7.30;4.25;;;;;;;9.73;85.21;98935.75;5051174;28;20044;-67
2022/10/29 04:04:51;;;;;;;6.28;3.95;;;;;;;9.74;84.33;98924.13;5026947;28;20041;-71
2022/10/29 04:07:17;;;;;;;8.48;5.35;;;;;;;9.76;84.21;98919.38;5051987;28;20043;-71
2022/10/29 04:09:42;;;;;;;7.15;4.45;;;;;;;9.81;84.19;98919.47;5017327;28;20040;-71
2022/10/29 04:12:08;;;;;;;6.47;4.57;;;;;;;9.77;84.83;98913.84;5051742;28;20049;-71
2022/10/29 04:14:34;;;;;;;6.68;4.57;;;;;;;9.76;84.38;98900.84;5033830;28;20426;-71
2022/10/29 04:16:59;;;;;;;7.78;4.95;;;;;;;9.73;84.02;98904.78;5033772;28;20048;-71
2022/10/29 04:19:25;;;;;;;6.88;4.57;;;;;;;9.73;83.92;98909.28;5051771;28;20478;-72
2022/10/29 04:21:50;;;;;;;7.25;4.43;;;;;;;9.72;84.99;98905.84;5017263;28;20045;-71
2022/10/29 04:24:16;;;;;;;6.05;4.43;;;;;;;9.68;84.81;98899.44;5051477;28;20052;-70
2022/10/29 04:26:42;;;;;;;7.38;4.82;;;;;;;9.66;84.49;98896.22;5051719;28;20390;-70
2022/10/29 04:29:08;;;;;;;6.65;4.47;;;;;;;9.69;85.26;98897.59;5051345;28;20501;-69
2022/10/29 04:31:34;;;;;;;8.45;5.05;;;;;;;9.75;83.89;98889.47;5033387;28;20140;-70
2022/10/29 04:33:59;;;;;;;5.40;4.28;;;;;;;9.71;83.88;98884.94;5016765;28;20565;-70
2022/10/29 04:36:25;;;;;;;6.78;4.45;;;;;;;9.73;84.23;98886.25;5033401;28;20055;-70
2022/10/29 04:38:50;;;;;;;5.15;3.90;;;;;;;9.81;83.93;98887.69;5033664;28;20494;-68
2022/10/29 04:41:16;;;;;;;6.28;4.57;;;;;;;9.84;83.42;98876.63;5050950;28;20041;-71
2022/10/29 04:43:42;;;;;;;7.05;4.07;;;;;;;9.76;84.24;98853.22;5033487;28;20448;-68
2022/10/29 04:46:09;;;;;;;7.35;4.93;;;;;;;9.77;83.44;98857.47;5051266;28;20051;-71
2022/10/29 04:48:35;;;;;;;6.38;4.22;;;;;;;9.85;83.71;98864.97;5033558;28;20139;-71
2022/10/29 04:51:00;;;;;;;5.60;4.35;;;;;;;9.82;83.35;98860.16;5051105;28;20043;-68
2022/10/29 04:53:26;;;;;;;6.70;4.47;;;;;;;9.85;83.60;98861.53;5051191;28;20041;-69
2022/10/29 04:55:58;;;;;;;7.03;5.03;;;;;;;9.84;82.77;98850.16;5033384;28;20048;-69
2022/10/29 04:58:23;;;;;;;8.05;5.10;;;;;;;9.91;83.29;98861.38;5033316;28;20070;-70
2022/10/29 05:00:49;;;;;;;8.88;5.32;;;;;;;9.91;83.20;98855.25;5051195;28;20559;-73
2022/10/29 05:03:14;;;;;;;8.48;4.85;;;;;;;9.91;83.05;98858.72;5016855;28;20041;-73
2022/10/29 05:05:40;;;;;;;7.40;5.10;;;;;;;9.93;83.31;98853.16;5033367;28;20048;-70
2022/10/29 05:08:08;;;;;;;9.40;5.03;;;;;;;9.96;83.71;98852.69;5032401;28;20124;-69
2022/10/29 05:10:36;;;;;;;8.57;4.80;;;;;;;9.93;83.20;98842.56;5016411;28;20049;-73
2022/10/29 05:13:06;;;;;;;6.72;5.20;;;;;;;9.99;83.44;98842.38;5033028;28;20095;-71
2022/10/29 05:15:32;;;;;;;7.18;4.53;;;;;;;10.00;82.55;98851.16;5050682;28;20401;-70
2022/10/29 05:17:58;;;;;;;8.20;5.03;;;;;;;10.02;83.15;98836.59;5000111;28;20136;-71
2022/10/29 05:20:24;;;;;;;7.60;4.95;;;;;;;9.99;83.46;98850.34;5032691;28;20045;-71
2022/10/29 05:22:49;;;;;;;7.95;5.40;;;;;;;10.08;82.82;98842.75;5050632;28;20130;-71
2022/10/29 05:25:15;;;;;;;7.93;5.13;;;;;;;10.07;82.78;98837.72;5032823;28;20048;-72
2022/10/29 05:27:41;;;;;;;6.18;4.38;;;;;;;10.04;82.71;98833.72;5032717;28;20044;-70
2022/10/29 05:30:07;;;;;;;8.57;4.93;;;;;;;10.00;83.18;98832.63;5032744;28;20045;-70
2022/10/29 05:32:33;;;;;;;7.88;4.75;;;;;;;9.99;83.20;98841.59;5032711;28;20037;-71
2022/10/29 05:34:59;;;;;;;7.63;5.07;;;;;;;10.01;83.59;98832.34;5032496;28;20528;-70
2022/10/29 05:37:26;;;;;;;8.02;4.93;;;;;;;10.08;82.70;98836.66;5050733;28;20043;-71
2022/10/29 05:39:53;;;;;;;8.02;4.57;;;;;;;10.08;83.10;98826.06;5032531;28;20041;-71
2022/10/29 05:42:18;;;;;;;6.10;4.15;;;;;;;10.12;82.85;98827.19;5032615;28;20044;-72
2022/10/29 05:44:44;;;;;;;6.68;4.50;;;;;;;10.15;82.58;98824.06;5016159;28;20051;-71
2022/10/29 05:47:10;;;;;;;6.53;4.40;;;;;;;10.11;82.62;98818.44;5016506;28;20041;-71
2022/10/29 05:49:35;;;;;;;8.48;4.80;;;;;;;10.22;81.75;98811.41;5016268;28;20041;-71
2022/10/29 05:52:01;;;;;;;6.00;4.18;;;;;;;10.24;81.75;98822.56;5050928;28;20552;-71
2022/10/29 05:54:26;;;;;;;6.65;4.28;;;;;;;10.24;81.85;98818.06;5052497;28;20061;-71
2022/10/29 05:56:52;;;;;;;8.70;4.80;;;;;;;10.29;82.14;98813.88;5035969;28;20577;-70
2022/10/29 05:59:18;;;;;;;6.32;4.13;;;;;;;10.33;81.36;98804.41;5019699;28;20422;-71
2022/10/29 06:01:44;;;;;;;8.38;4.70;;;;;;;10.32;81.48;98803.56;5019593;28;20040;-70
2022/10/29 06:04:09;;;;;;;6.47;4.43;;;;;;;10.31;81.42;98801.19;5036028;28;20056;-70
2022/10/29 06:06:35;;;;;;;8.05;4.70;;;;;;;10.33;81.32;98804.41;5054158;28;20049;-69
2022/10/29 06:09:01;;;;;;;7.55;4.30;;;;;;;10.33;81.46;98802.53;5036053;28;20124;-70
2022/10/29 06:11:27;;;;;;;7.22;4.95;;;;;;;10.33;81.06;98799.09;5035992;28;20516;-68
2022/10/29 06:13:55;;;;;;;6.80;4.57;;;;;;;10.28;81.94;98794.53;5053683;28;20124;-68
2022/10/29 06:16:21;;;;;;;6.90;4.45;;;;;;;10.29;82.18;98784.75;5035678;28;20401;-69
2022/10/29 06:18:47;;;;;;;8.55;4.30;;;;;;;10.35;82.14;98787.22;5019063;28;20048;-69
2022/10/29 06:21:13;;;;;;;7.35;4.63;;;;;;;10.38;81.85;98785.88;5053650;28;20068;-66
2022/10/29 06:23:39;;;;;;;8.52;5.03;;;;;;;10.45;80.95;98783.84;5053889;28;20491;-70
2022/10/29 06:26:04;;;;;;;7.15;4.75;;;;;;;10.40;80.72;98776.63;5035490;28;20053;-69
2022/10/29 06:28:31;;;;;;;6.53;4.20;;;;;;;10.45;80.95;98767.94;5053300;28;20551;-69
2022/10/29 06:30:56;;;;;;;6.22;4.25;;;;;;;10.53;81.45;98771.97;5018820;28;20062;-69
2022/10/29 06:33:22;;;;;;;6.20;4.57;;;;;;;10.50;80.38;98764.53;5053330;28;20049;-73
2022/10/29 06:35:48;;;;;;;8.32;5.10;;;;;;;10.51;80.73;98772.25;5035349;28;20044;-76
2022/10/29 06:38:15;;;;;;;6.78;4.53;;;;;;;10.57;80.18;98757.97;5018693;28;20052;-70
2022/10/29 06:40:41;;;;;;;6.28;4.30;;;;;;;10.58;80.60;98759.56;5019010;28;20052;-74
2022/10/29 06:43:09;;;;;;;7.43;4.63;;;;;;;10.57;79.86;98757.97;5053050;28;20045;-74
2022/10/29 06:45:35;;;;;;;6.18;4.15;;;;;;;10.64;79.99;98752.47;5035147;28;20418;-73
2022/10/29 06:48:04;;;;;;;5.80;4.05;;;;;;;10.66;79.58;98745.88;5035472;28;20049;-73
2022/10/29 06:50:30;;;;;;;7.65;5.05;;;;;;;10.63;79.50;98740.28;5018551;28;20045;-74
2022/10/29 06:53:01;;;;;;;6.50;4.05;;;;;;;10.61;79.57;98742.38;5035436;28;20425;-76
2022/10/29 06:55:27;;;;;;;6.57;4.30;;;;;;;10.68;79.36;98732.38;5052865;28;20045;-75
2022/10/29 06:57:59;;;;;;;5.00;4.00;;;;;;;10.72;79.00;98733.44;5052655;28;20091;-73
2022/10/29 07:00:25;;;;;;;7.28;4.50;;;;;;;10.64;79.41;98726.75;5035166;28;20041;-71
2022/10/29 07:02:51;;;;;;;5.03;3.72;;;;;;;10.65;79.89;98741.63;5052725;28;20082;-69
2022/10/29 07:05:17;;;;;;;6.53;4.05;;;;;;;10.64;79.36;98733.91;5052122;28;20552;-70
2022/10/29 07:07:42;;;;;;;5.50;3.90;;;;;;;10.60;79.32;98725.69;5018425;28;20049;-70
2022/10/29 07:10:08;;;;;;;6.13;3.92;;;;;;;10.70;79.48;98727.59;5034616;28;20071;-69
2022/10/29 07:12:44;;;;;;;5.88;3.90;;;;;;;10.75;79.29;98721.53;5052322;28;20095;-68
2022/10/29 07:15:10;;;;;;;8.70;4.38;;;;;;;10.70;79.21;98719.63;5034503;28;20039;-69
2022/10/29 07:17:36;;;;;;;6.70;4.20;;;;;;;10.69;79.51;98712.75;5018443;28;20045;-71
2022/10/29 07:20:03;;;;;;;7.15;4.00;;;;;;;10.75;79.82;98717.03;5017917;28;20041;-69
2022/10/29 07:22:29;;;;;;;6.53;3.95;;;;;;;10.78;79.90;98710.44;5018239;28;20056;-71
2022/10/29 07:24:55;;;;;;;8.30;4.20;;;;;;;10.83;79.04;98708.63;5052201;28;20033;-68
2022/10/29 07:27:20;;;;;;;8.68;3.95;;;;;;;10.76;79.64;98702.72;5017711;28;20234;-69
2022/10/29 07:29:46;;;;;;;5.28;3.53;;;;;;;10.76;79.38;98705.38;5052176;28;20107;-70
2022/10/29 07:32:12;;;;;;;11.20;6.50;;;;;;;10.58;79.64;98661.50;5052586;28;20118;-71
2022/10/29 07:34:38;;;;;;;8.45;4.60;;;;;;;10.84;79.33;98690.84;5017782;28;20037;-67
2022/10/29 07:37:05;;;;;;;6.50;4.25;;;;;;;10.91;78.48;98686.94;4998283;28;20088;-69
2022/10/29 07:39:31;;;;;;;6.47;3.90;;;;;;;10.92;78.58;98690.38;4994770;28;20042;-68
2022/10/29 07:41:57;;;;;;;5.95;3.80;;;;;;;10.92;78.59;98687.72;5011823;28;20546;-66
2022/10/29 07:44:23;;;;;;;6.93;4.43;;;;;;;10.95;78.63;98681.09;4994526;28;20045;-70
2022/10/29 07:46:48;;;;;;;6.32;3.97;;;;;;;10.94;78.67;98677.63;4977963;28;20068;-70
2022/10/29 07:49:14;;;;;;;6.10;4.28;;;;;;;10.79;79.17;98669.59;5012085;28;20459;-70
2022/10/29 07:51:40;;;;;;;7.10;4.30;;;;;;;10.75;78.86;98668.53;4993911;28;20460;-66
2022/10/29 07:54:06;;;;;;;9.45;4.50;;;;;;;10.72;80.08;98658.44;4985304;28;20055;-71
2022/10/29 07:56:31;;;;;;;7.28;4.47;;;;;;;10.74;79.69;98678.34;5016840;28;20045;-70
2022/10/29 07:58:57;;;;;;;9.23;5.13;;;;;;;10.73;80.03;98668.75;5050863;28;20037;-71
2022/10/29 08:01:23;;;;;;;10.20;5.30;;;;;;;10.63;80.75;98656.25;5029594;28;20503;-69
2022/10/29 08:03:50;;;;;;;7.63;4.57;;;;;;;10.67;80.73;98656.53;5007751;28;20045;-73
2022/10/29 08:06:16;;;;;;;7.05;4.20;;;;;;;10.68;82.06;98658.16;5015767;28;20037;-71
2022/10/29 08:08:42;;;;;;;7.85;3.85;;;;;;;10.69;81.12;98654.44;5050777;28;20581;-74
2022/10/29 08:11:07;;;;;;;5.10;3.67;;;;;;;10.69;80.84;98647.28;5016596;28;20094;-74
2022/10/29 08:13:33;;;;;;;6.78;4.13;;;;;;;10.75;81.90;98653.41;5033198;28;20047;-65
2022/10/29 08:15:59;;;;;;;6.80;4.65;;;;;;;10.75;81.75;98642.00;5050522;28;20081;-68
2022/10/29 08:18:24;;;;;;;10.07;4.32;;;;;;;10.79;81.84;98657.13;5050759;28;20398;-71
2022/10/29 08:20:50;;;;;;;5.63;3.88;;;;;;;10.81;81.00;98649.75;5015969;28;20033;-69
2022/10/29 08:23:16;;;;;;;6.55;4.10;;;;;;;10.83;80.64;98654.78;5051255;28;20048;-68
2022/10/29 08:25:44;;;;;;;6.20;4.03;;;;;;;10.85;80.64;98647.38;5000063;28;20603;-69
2022/10/29 08:28:13;;;;;;;7.90;4.28;;;;;;;10.90;81.20;98650.06;5016571;28;20045;-70
2022/10/29 08:30:39;;;;;;;8.07;4.18;;;;;;;10.94;80.17;98651.13;5033077;28;20498;-72
2022/10/29 08:33:06;;;;;;;6.78;3.92;;;;;;;10.94;80.07;98648.47;5033138;28;20041;-71
2022/10/29 08:35:32;;;;;;;7.15;4.68;;;;;;;10.97;80.53;98649.81;5015734;28;20059;-71
2022/10/29 08:37:58;;;;;;;8.63;4.78;;;;;;;10.87;80.49;98645.25;5016626;28;20577;-67
2022/10/29 08:40:29;;;;;;;6.22;4.10;;;;;;;10.83;79.91;98615.81;5032740;28;20048;-71
2022/10/29 08:43:36;;;;;;;5.70;4.03;;;;;;;11.01;80.11;98633.13;5049445;28;20041;-67
2022/10/29 08:46:02;;;;;;;8.95;4.40;;;;;;;11.01;79.82;98625.19;5008609;28;20157;-67
2022/10/29 08:48:39;;;;;;;6.60;4.28;;;;;;;10.96;79.65;98609.25;5024406;28;20140;-68
2022/10/29 08:51:20;;;;;;;6.53;3.80;;;;;;;10.97;79.49;98605.56;5033136;28;20045;-69
2022/10/29 08:53:48;;;;;;;8.98;4.32;;;;;;;10.93;80.17;98591.19;5051079;28;20493;-71
2022/10/29 08:56:23;;;;;;;7.47;4.25;;;;;;;10.87;80.65;98589.59;5050948;28;20056;-67
2022/10/29 08:58:52;;;;;;;6.72;4.32;;;;;;;10.91;80.98;98580.88;5033040;28;20085;-67
2022/10/29 09:01:20;;;;;;;7.80;4.13;;;;;;;10.94;81.97;98576.09;5051211;28;20052;-68
2022/10/29 09:03:45;;;;;;;9.57;4.60;;;;;;;11.02;81.54;98568.44;5033155;28;20056;-68
2022/10/29 09:06:33;;;;;;;7.25;4.53;;;;;;;11.12;80.35;98571.13;5032988;28;20394;-66
2022/10/29 09:08:58;;;;;;;8.40;5.07;;;;;;;11.10;80.42;98567.13;5033177;28;20135;-68
2022/10/29 09:11:24;;;;;;;8.43;4.50;;;;;;;11.12;79.77;98562.38;5016548;28;20140;-69
2022/10/29 09:14:09;;;;;;;6.47;4.03;;;;;;;11.02;80.34;98563.13;5016795;28;20056;-67
2022/10/29 09:16:50;;;;;;;7.93;4.68;;;;;;;10.99;80.92;98555.69;5032940;28;20137;-66
2022/10/29 09:19:41;;;;;;;7.78;4.53;;;;;;;10.93;80.56;98540.03;5016699;28;20060;-67
2022/10/29 09:22:06;;;;;;;;;;;;;;;10.75;80.44;98535.97;5033672;28;20089;-66
2022/10/29 09:24:56;;;;;;;6.93;4.10;;;;;;;10.73;81.11;98538.09;5051086;28;19964;-66
2022/10/29 09:27:43;;;;;;;6.93;3.97;;;;;;;10.70;81.81;98528.78;5053622;28;20045;-67
2022/10/29 09:30:15;;;;;;;7.57;4.65;;;;;;;10.69;81.16;98533.31;5055911;28;20045;-65
2022/10/29 09:32:54;;;;;;;6.22;4.53;;;;;;;10.64;81.49;98530.63;5038702;28;20127;-68
2022/10/29 09:35:21;;;;;;;5.43;4.05;;;;;;;10.63;82.45;98526.38;5005078;28;20254;-67
2022/10/29 09:37:59;;;;;;;7.00;4.35;;;;;;;10.67;81.80;98527.47;5004337;28;20060;-67
2022/10/29 09:40:38;;;;;;;7.28;4.47;;;;;;;10.62;81.11;98527.47;5019777;28;20543;-68
2022/10/29 09:43:41;;;;;;;8.25;5.22;;;;;;;10.57;81.73;98530.06;5054560;28;20068;-67
2022/10/29 09:46:38;;;;;;;7.95;4.68;;;;;;;10.63;81.30;98523.75;5054157;28;20049;-67
2022/10/29 09:49:24;;;;;;;6.88;4.68;;;;;;;10.69;81.67;98530.66;5054366;28;20053;-69
2022/10/29 09:52:01;;;;;;;10.35;5.57;;;;;;;10.68;80.87;98522.97;5019784;28;20037;-69
2022/10/29 09:54:28;;;;;;;7.80;5.30;;;;;;;10.65;81.47;98528.78;5019321;28;20060;-69
2022/10/29 09:56:55;;;;;;;9.75;5.80;;;;;;;10.64;81.66;98527.97;5036183;28;20460;-69
2022/10/29 09:59:27;;;;;;;8.80;5.25;;;;;;;10.66;81.82;98528.53;5053989;28;20095;-69
2022/10/29 10:01:53;;;;;;;10.40;5.85;;;;;;;10.59;82.04;98517.38;5036292;28;20048;-68
2022/10/29 10:04:27;;;;;;;10.13;5.70;;;;;;;10.52;81.93;98516.78;5019763;28;20243;-69
2022/10/29 10:07:08;;;;;;;13.20;6.65;;;;;;;10.54;81.85;98513.91;5036429;28;20095;-69
2022/10/29 10:09:52;;;;;;;15.20;6.72;;;;;;;10.56;81.95;98504.66;5019830;28;20364;-68
2022/10/29 10:12:22;;;;;;;16.05;6.32;;;;;;;10.51;81.67;98494.00;5055696;28;20048;-69
2022/10/29 10:14:48;;;;;;;12.20;6.20;;;;;;;10.53;82.24;98502.50;5053204;28;20037;-68
2022/10/29 10:17:14;;;;;;;15.50;7.07;;;;;;;10.58;81.65;98499.84;5004107;28;20103;-68
2022/10/29 10:19:44;;;;;;;14.68;7.10;;;;;;;10.64;81.52;98485.56;5053514;28;20045;-71
2022/10/29 10:22:18;;;;;;;;;;;;;;;10.65;80.88;98489.03;5036176;28;20037;-70
2022/10/29 10:24:43;;;;;;;12.55;6.65;;;;;;;10.67;81.37;98482.41;5053674;28;20439;-63
2022/10/29 10:27:18;;;;;;;13.20;6.80;;;;;;;10.71;80.75;98477.41;5035578;28;20045;-65
2022/10/29 10:30:04;;;;;;;12.07;6.30;;;;;;;10.68;81.22;98468.13;5035971;28;20075;-66
2022/10/29 10:32:30;;;;;;;12.45;6.22;;;;;;;10.75;80.94;98481.09;5035755;28;20061;-67
2022/10/29 10:34:56;;;;;;;13.43;7.50;;;;;;;10.65;80.79;98460.69;5002616;28;20037;-66
2022/10/29 10:37:22;;;;;;;12.10;7.50;;;;;;;10.68;81.18;98462.81;5002739;28;20056;-66
2022/10/29 10:39:59;;;;;;;13.95;6.97;;;;;;;10.78;80.64;98461.25;5051156;28;20502;-66
2022/10/29 10:42:28;;;;;;;13.68;7.28;;;;;;;10.72;80.27;98462.28;5035885;28;20082;-66
2022/10/29 10:45:03;;;;;;;14.73;7.38;;;;;;;10.68;80.58;98462.00;5018801;28;20040;-66
2022/10/29 10:47:33;;;;;;;14.65;7.78;;;;;;;10.68;80.05;98451.41;5052985;28;20049;-65
2022/10/29 10:50:17;;;;;;;11.48;7.18;;;;;;;10.63;81.03;98449.53;5035191;28;20498;-65
2022/10/29 10:52:43;;;;;;;13.85;7.55;;;;;;;10.67;80.96;98447.94;5053053;28;20041;-66
2022/10/29 10:55:21;;;;;;;11.50;7.47;;;;;;;10.63;80.92;98436.28;5052650;28;20056;-67
2022/10/29 10:58:11;;;;;;;13.30;7.18;;;;;;;10.68;80.51;98438.97;5018542;28;20044;-67
2022/10/29 11:00:44;;;;;;;16.13;7.13;;;;;;;10.62;80.49;98431.25;5025306;28;20029;-68
2022/10/29 11:03:15;;;;;;;15.38;7.43;;;;;;;10.55;81.60;98420.09;4993092;28;20169;-66
2022/10/29 11:06:07;;;;;;;15.35;7.45;;;;;;;10.51;81.90;98421.69;5050150;28;20072;-69
2022/10/29 11:08:51;;;;;;;13.75;7.88;;;;;;;10.56;81.35;98411.06;5039043;28;20110;-68
2022/10/29 11:11:26;;;;;;;14.57;7.47;;;;;;;10.63;80.93;98409.00;5022420;28;20041;-68
2022/10/29 11:13:57;;;;;;;15.23;7.68;;;;;;;10.67;81.19;98407.41;5037241;28;20052;-69
2022/10/29 11:16:32;;;;;;;15.35;7.80;;;;;;;10.64;80.94;98406.06;5034147;28;20159;-63
2022/10/29 11:19:22;;;;;;;13.55;7.35;;;;;;;10.57;81.41;98392.28;5018891;28;20102;-69
2022/10/29 11:22:02;;;;;;;14.50;8.43;;;;;;;10.66;80.50;98389.91;5041004;28;20056;-70
2022/10/29 11:24:43;;;;;;;16.45;8.05;;;;;;;10.71;81.13;98389.94;5039013;28;20048;-69
2022/10/29 11:27:18;;;;;;;13.82;7.85;;;;;;;10.75;80.88;98383.03;5047773;28;20047;-70
2022/10/29 11:29:49;;;;;;;11.68;6.80;;;;;;;10.71;80.71;98381.16;5052951;28;20053;-68
2022/10/29 11:32:19;;;;;;;17.50;8.38;;;;;;;10.74;80.50;98380.66;5040677;28;20047;-63
2022/10/29 11:35:09;;;;;;;14.87;7.43;;;;;;;10.78;80.24;98371.91;5021479;28;20048;-63
2022/10/29 11:37:47;;;;;;;11.75;7.10;;;;;;;10.77;80.05;98372.97;5052259;28;20306;-63
2022/10/29 11:40:18;;;;;;;16.88;8.23;;;;;;;10.75;80.81;98369.78;5053553;28;20581;-69
2022/10/29 11:42:44;;;;;;;14.88;7.45;;;;;;;10.78;80.23;98368.47;5008572;28;20040;-67
2022/10/29 11:45:14;;;;;;;14.65;6.95;;;;;;;10.73;80.16;98353.34;5022914;28;20497;-68
2022/10/29 11:47:54;;;;;;;15.38;7.20;;;;;;;10.80;79.99;98353.09;4995028;28;20049;-67